createdAt,value
2023-03-21T00:01:53.097Z,99793.16
2023-03-21T00:04:21.475Z,99788.00
2023-03-21T00:06:49.014Z,99791.44
2023-03-21T00:09:15.866Z,99786.28
2023-03-21T00:11:42.769Z,99786.25
2023-03-21T00:14:14.485Z,99787.13
2023-03-21T00:16:41.892Z,99781.09
2023-03-21T00:19:09.887Z,99781.94
2023-03-21T00:21:51.897Z,99779.34
2023-03-21T00:24:25.538Z,99778.47
2023-03-21T00:26:52.514Z,99774.19
2023-03-21T00:29:19.893Z,99762.09
2023-03-21T00:31:46.942Z,99763.81
2023-03-21T00:34:13.964Z,99764.69
2023-03-21T00:36:41.055Z,99760.38
2023-03-21T00:39:08.010Z,99764.69
2023-03-21T00:41:42.427Z,99767.25
2023-03-21T00:44:11.796Z,99770.72
2023-03-21T00:47:00.581Z,99769.84
2023-03-21T00:49:26.103Z,99763.84
2023-03-21T00:51:55.224Z,99754.31
2023-03-21T00:54:24.573Z,99770.72
2023-03-21T00:56:51.649Z,99766.41
2023-03-21T00:59:18.904Z,99773.31
2023-03-21T01:01:46.824Z,99769.00
2023-03-21T01:04:16.837Z,99768.13
2023-03-21T01:06:44.415Z,99765.53
2023-03-21T01:09:17.288Z,99767.25
2023-03-21T01:11:45.273Z,99773.34
2023-03-21T01:14:22.514Z,99773.31
2023-03-21T01:16:52.420Z,99764.69
2023-03-21T01:19:27.498Z,99763.81
2023-03-21T01:21:58.261Z,99763.81
2023-03-21T01:24:25.577Z,99764.69
2023-03-21T01:26:52.405Z,99770.72
2023-03-21T01:29:19.501Z,99766.41
2023-03-21T01:31:46.583Z,99763.84
2023-03-21T01:34:13.565Z,99768.16
2023-03-21T01:36:41.398Z,99765.56
2023-03-21T01:39:13.991Z,99757.78
2023-03-21T01:41:44.088Z,99768.13
2023-03-21T01:44:19.859Z,99767.25
2023-03-21T01:49:56.994Z,99771.59
2023-03-21T01:52:39.491Z,99769.00
2023-03-21T01:55:12.532Z,99778.50
2023-03-21T01:58:04.790Z,99792.31
2023-03-21T02:00:41.588Z,99796.63
2023-03-21T02:03:34.867Z,99781.09
2023-03-21T02:06:30.410Z,99790.56
2023-03-21T02:09:05.722Z,99789.72
2023-03-21T02:11:33.326Z,99786.25
2023-03-21T02:14:06.734Z,99787.97
2023-03-21T02:17:27.176Z,99800.91
2023-03-21T02:20:36.204Z,99796.59
2023-03-21T02:23:41.170Z,99794.00
2023-03-21T02:26:52.462Z,99794.84
2023-03-21T02:30:14.861Z,99793.13
2023-03-21T02:33:16.483Z,99806.94
2023-03-21T02:36:26.349Z,99803.50
2023-03-21T02:39:08.043Z,99799.16
2023-03-21T02:41:52.638Z,99805.19
2023-03-21T02:44:43.331Z,99805.19
2023-03-21T02:47:39.700Z,99806.88
2023-03-21T02:50:12.793Z,99795.66
2023-03-21T02:52:41.608Z,99793.06
2023-03-21T02:55:15.666Z,99783.56
2023-03-21T02:57:52.512Z,99791.31
2023-03-21T03:00:24.573Z,99802.47
2023-03-21T03:03:02.651Z,99807.69
2023-03-21T03:05:37.959Z,99804.19
2023-03-21T03:08:35.746Z,99794.69
2023-03-21T03:11:17.011Z,99798.13
2023-03-21T03:17:18.741Z,99805.88
2023-03-21T03:20:23.896Z,99802.41
2023-03-21T03:23:17.651Z,99815.31
2023-03-21T03:25:49.832Z,99810.13
2023-03-21T03:28:20.326Z,99816.16
2023-03-21T03:31:05.529Z,99810.13
2023-03-21T03:33:44.230Z,99820.47
2023-03-21T03:36:30.451Z,99821.31
2023-03-21T03:39:09.221Z,99808.38
2023-03-21T03:44:38.022Z,99816.13
2023-03-21T03:47:11.817Z,99822.16
2023-03-21T03:49:46.988Z,99822.16
2023-03-21T03:52:28.007Z,99820.44
2023-03-21T03:55:07.968Z,99829.06
2023-03-21T03:57:38.571Z,99828.19
2023-03-21T04:00:12.475Z,99823.91
2023-03-21T04:02:44.128Z,99827.34
2023-03-21T04:05:14.117Z,99822.16
2023-03-21T04:07:41.447Z,99821.31
2023-03-21T04:10:09.191Z,99822.13
2023-03-21T04:12:41.048Z,99823.00
2023-03-21T04:15:27.850Z,99829.88
2023-03-21T04:18:02.852Z,99830.72
2023-03-21T04:20:43.125Z,99826.41
2023-03-21T04:23:11.313Z,99837.59
2023-03-21T04:25:47.638Z,99834.97
2023-03-21T04:28:17.917Z,99832.38
2023-03-21T04:31:24.070Z,99828.88
2023-03-21T04:33:53.235Z,99844.38
2023-03-21T04:36:40.909Z,99837.44
2023-03-21T04:39:12.692Z,99841.78
2023-03-21T04:41:43.069Z,99834.88
2023-03-21T04:44:11.902Z,99837.47
2023-03-21T04:46:39.356Z,99841.78
2023-03-21T04:49:08.124Z,99845.22
2023-03-21T04:51:36.379Z,99845.19
2023-03-21T04:56:36.365Z,99859.81
2023-03-21T04:59:09.263Z,99868.44
2023-03-21T05:01:36.489Z,99858.09
2023-03-21T05:04:04.338Z,99859.78
2023-03-21T05:06:34.497Z,99859.78
2023-03-21T05:09:05.598Z,99859.75
2023-03-21T05:11:37.812Z,99869.22
2023-03-21T05:14:06.171Z,99868.44
2023-03-21T05:16:34.782Z,99865.81
2023-03-21T05:19:05.988Z,99869.25
2023-03-21T05:21:41.742Z,99870.97
2023-03-21T05:24:15.382Z,99875.28
2023-03-21T05:26:43.348Z,99877.00
2023-03-21T05:29:15.041Z,99877.00
2023-03-21T05:31:48.732Z,99884.81
2023-03-21T05:34:15.807Z,99887.38
2023-03-21T05:36:43.808Z,99881.41
2023-03-21T05:39:11.527Z,99891.75
2023-03-21T05:41:44.030Z,99893.53
2023-03-21T05:44:11.235Z,99886.66
2023-03-21T05:46:39.723Z,99889.25
2023-03-21T05:49:06.534Z,99898.75
2023-03-21T05:51:33.913Z,99897.88
2023-03-21T05:54:01.514Z,99901.34
2023-03-21T05:56:28.380Z,99903.09
2023-03-21T05:59:00.727Z,99903.97
2023-03-21T06:01:28.690Z,99903.13
2023-03-21T06:04:06.552Z,99898.81
2023-03-21T06:06:34.210Z,99900.59
2023-03-21T06:09:02.141Z,99915.19
2023-03-21T06:11:36.754Z,99904.78
2023-03-21T06:14:24.830Z,99906.50
2023-03-21T06:17:11.748Z,99907.41
2023-03-21T06:19:45.831Z,99910.88
2023-03-21T06:22:28.032Z,99917.81
2023-03-21T06:24:54.989Z,99916.97
2023-03-21T06:27:22.016Z,99921.31
2023-03-21T06:29:53.182Z,99925.72
2023-03-21T06:32:22.673Z,99937.91
2023-03-21T06:34:54.809Z,99939.63
2023-03-21T06:37:21.754Z,99936.97
2023-03-21T06:39:48.536Z,99946.41
2023-03-21T06:42:16.009Z,99952.44
2023-03-21T06:44:43.488Z,99953.34
2023-03-21T06:47:14.090Z,99949.91
2023-03-21T06:49:44.120Z,99947.31
2023-03-21T06:52:12.734Z,99958.53
2023-03-21T06:54:40.783Z,99952.50
2023-03-21T06:57:13.668Z,99957.72
2023-03-21T06:59:44.540Z,99956.88
2023-03-21T07:02:18.530Z,99958.59
2023-03-21T07:04:54.331Z,99960.34
2023-03-21T07:07:26.492Z,99959.47
2023-03-21T07:09:53.527Z,99959.56
2023-03-21T07:12:20.813Z,99965.69
2023-03-21T07:15:07.338Z,99964.88
2023-03-21T07:17:35.809Z,99967.53
2023-03-21T07:20:06.572Z,99968.38
2023-03-21T07:22:34.244Z,99974.41
2023-03-21T07:25:05.215Z,99971.78
2023-03-21T07:27:40.756Z,99975.25
2023-03-21T07:30:09.566Z,99977.88
2023-03-21T07:32:38.209Z,99972.72
2023-03-21T07:35:08.051Z,99975.31
2023-03-21T07:37:37.960Z,99971.84
2023-03-21T07:40:10.831Z,99977.06
2023-03-21T07:42:42.189Z,99977.91
2023-03-21T07:45:16.575Z,99972.75
2023-03-21T07:47:46.365Z,99978.78
2023-03-21T07:50:13.893Z,99976.16
2023-03-21T07:52:41.461Z,99975.34
2023-03-21T07:55:09.047Z,99977.94
2023-03-21T07:57:36.695Z,99985.72
2023-03-21T08:00:05.453Z,99978.88
2023-03-21T08:02:40.023Z,99991.84
2023-03-21T08:05:07.344Z,99984.06
2023-03-21T08:07:34.343Z,99986.72
2023-03-21T08:10:01.500Z,99984.13
2023-03-21T08:12:28.541Z,99998.84
2023-03-21T08:14:55.501Z,99991.91
2023-03-21T08:17:22.447Z,99990.19
2023-03-21T08:19:49.397Z,100000.56
2023-03-21T08:22:16.298Z,100004.91
2023-03-21T08:24:43.429Z,100007.47
2023-03-21T08:27:10.525Z,100016.13
2023-03-21T08:29:40.627Z,100015.25
2023-03-21T08:32:07.681Z,100016.13
2023-03-21T08:34:34.904Z,100025.66
2023-03-21T08:37:02.007Z,100029.09
2023-03-21T08:39:29.101Z,100033.41
2023-03-21T08:41:55.985Z,100045.47
2023-03-21T08:44:25.368Z,100040.31
2023-03-21T08:46:52.281Z,100048.97
2023-03-21T08:49:19.324Z,100042.06
2023-03-21T08:51:46.606Z,100049.84
2023-03-21T08:54:20.767Z,100044.63
2023-03-21T08:56:47.797Z,100039.47
2023-03-21T08:59:14.904Z,100038.59
2023-03-21T09:01:42.290Z,100040.31
2023-03-21T09:04:11.267Z,100036.88
2023-03-21T09:06:41.095Z,100043.78
2023-03-21T09:09:09.461Z,100040.34
2023-03-21T09:11:36.629Z,100044.66
2023-03-21T09:14:03.649Z,100049.84
2023-03-21T09:16:31.417Z,100051.56
2023-03-21T09:18:59.319Z,100047.25
2023-03-21T09:21:27.958Z,100050.72
2023-03-21T09:23:58.736Z,100050.69
2023-03-21T09:26:26.533Z,100056.75
2023-03-21T09:28:54.361Z,100062.81
2023-03-21T09:31:23.117Z,100053.31
2023-03-21T09:33:51.283Z,100055.91
2023-03-21T09:36:22.055Z,100055.06
2023-03-21T09:38:49.509Z,100053.31
2023-03-21T09:41:41.684Z,100060.22
2023-03-21T09:44:28.859Z,100060.25
2023-03-21T09:47:25.206Z,100065.41
2023-03-21T09:50:14.911Z,100063.66
2023-03-21T09:53:06.411Z,100055.00
2023-03-21T09:55:36.855Z,100055.00
2023-03-21T09:58:08.181Z,100054.13
2023-03-21T10:00:38.335Z,100051.56
2023-03-21T10:03:11.544Z,100049.81
2023-03-21T10:05:40.812Z,100052.41
2023-03-21T10:08:14.839Z,100057.59
2023-03-21T10:10:49.667Z,100064.50
2023-03-21T10:13:21.477Z,100050.66
2023-03-21T10:15:49.102Z,100067.06
2023-03-21T10:18:23.641Z,100067.03
2023-03-21T10:20:51.914Z,100060.97
2023-03-21T10:23:21.839Z,100066.19
2023-03-21T10:25:52.781Z,100061.03
2023-03-21T10:28:23.725Z,100059.28
2023-03-21T10:30:59.981Z,100068.81
2023-03-21T10:33:29.692Z,100076.63
2023-03-21T10:36:00.147Z,100066.22
2023-03-21T10:38:27.435Z,100079.22
2023-03-21T10:40:54.796Z,100078.38
2023-03-21T10:43:38.118Z,100083.56
2023-03-21T10:46:27.540Z,100077.50
2023-03-21T10:48:54.965Z,100073.09
2023-03-21T10:51:23.928Z,100073.97
2023-03-21T10:54:05.163Z,100077.41
2023-03-21T10:56:37.042Z,100068.66
2023-03-21T10:59:04.743Z,100068.66
2023-03-21T11:01:37.639Z,100068.66
2023-03-21T11:04:16.569Z,100064.38
2023-03-21T11:06:47.022Z,100060.84
2023-03-21T11:09:23.301Z,100070.19
2023-03-21T11:12:11.552Z,100062.28
2023-03-21T11:14:47.625Z,100057.09
2023-03-21T11:17:30.131Z,100059.00
2023-03-21T11:20:05.584Z,100057.34
2023-03-21T11:22:43.665Z,100063.53
2023-03-21T11:25:22.205Z,100062.69
2023-03-21T11:27:51.030Z,100058.34
2023-03-21T11:30:22.636Z,100055.75
2023-03-21T11:32:57.827Z,100068.78
2023-03-21T11:35:28.407Z,100060.94
2023-03-21T11:37:56.568Z,100074.75
2023-03-21T11:40:31.189Z,100065.16
2023-03-21T11:43:01.108Z,100059.88
2023-03-21T11:45:33.831Z,100058.00
2023-03-21T11:48:02.906Z,100057.91
2023-03-21T11:50:34.024Z,100052.69
2023-03-21T11:53:28.471Z,100055.22
2023-03-21T11:56:22.827Z,100050.75
2023-03-21T11:59:07.754Z,100063.66
2023-03-21T12:02:01.886Z,100059.44
2023-03-21T12:04:41.526Z,100058.53
2023-03-21T12:07:42.325Z,100043.97
2023-03-21T12:10:49.204Z,100046.59
2023-03-21T12:13:33.844Z,100054.50
2023-03-21T12:16:21.272Z,100045.91
2023-03-21T12:19:28.123Z,100052.06
2023-03-21T12:22:23.866Z,100051.22
2023-03-21T12:25:12.224Z,100045.22
2023-03-21T12:28:31.525Z,100036.56
2023-03-21T12:31:13.053Z,100037.31
2023-03-21T12:33:50.045Z,100042.47
2023-03-21T12:36:48.161Z,100038.16
2023-03-21T12:39:36.698Z,100028.56
2023-03-21T12:45:06.018Z,100026.84
2023-03-21T12:47:34.918Z,100033.75
2023-03-21T12:50:26.289Z,100028.53
2023-03-21T12:52:59.623Z,100029.31
2023-03-21T12:55:33.438Z,100030.88
2023-03-21T12:58:22.992Z,100031.78
2023-03-21T13:00:58.909Z,100023.16
2023-03-21T13:03:51.702Z,100024.84
2023-03-21T13:06:19.880Z,100016.25
2023-03-21T13:09:05.858Z,100024.94
2023-03-21T13:11:34.338Z,100020.69
2023-03-21T13:14:20.502Z,100019.06
2023-03-21T13:17:04.364Z,100015.59
2023-03-21T13:19:42.878Z,100003.47
2023-03-21T13:22:30.242Z,100006.03
2023-03-21T13:25:25.118Z,100010.28
2023-03-21T13:28:01.838Z,100005.84
2023-03-21T13:30:32.566Z,99995.38
2023-03-21T13:33:14.090Z,99994.47
2023-03-21T13:35:43.849Z,99989.25
2023-03-21T13:38:18.645Z,99991.78
2023-03-21T13:40:58.860Z,99988.28
2023-03-21T13:43:51.885Z,99980.38
2023-03-21T13:46:54.511Z,99980.34
2023-03-21T13:49:32.489Z,99975.94
2023-03-21T13:52:02.101Z,99978.44
2023-03-21T13:54:51.484Z,99984.47
2023-03-21T13:57:38.934Z,99981.03
2023-03-21T14:00:30.482Z,99969.75
2023-03-21T14:03:06.821Z,99973.22
2023-03-21T14:05:35.570Z,99969.81
2023-03-21T14:08:15.331Z,99969.97
2023-03-21T14:10:49.170Z,99963.06
2023-03-21T14:13:19.703Z,99964.78
2023-03-21T14:15:55.951Z,99963.06
2023-03-21T14:18:41.035Z,99958.75
2023-03-21T14:21:23.769Z,99960.41
2023-03-21T14:24:00.390Z,99969.06
2023-03-21T14:26:34.733Z,99964.72
2023-03-21T14:29:05.498Z,99953.53
2023-03-21T14:31:34.647Z,99965.69
2023-03-21T14:34:03.172Z,99960.44
2023-03-21T14:36:34.632Z,99959.59
2023-03-21T14:39:23.481Z,99956.00
2023-03-21T14:41:53.789Z,99959.47
2023-03-21T14:44:28.002Z,99952.63
2023-03-21T14:47:02.888Z,99951.72
2023-03-21T14:49:32.203Z,99952.56
2023-03-21T14:52:06.671Z,99954.31
2023-03-21T14:54:34.030Z,99945.69
2023-03-21T14:57:03.743Z,99944.78
2023-03-21T14:59:34.921Z,99950.78
2023-03-21T15:02:05.251Z,99949.91
2023-03-21T15:04:33.321Z,99943.88
2023-03-21T15:07:06.108Z,99933.59
2023-03-21T15:09:35.126Z,99936.31
2023-03-21T15:12:02.498Z,99939.00
2023-03-21T15:14:33.008Z,99940.81
2023-03-21T15:17:02.284Z,99940.84
2023-03-21T15:19:32.772Z,99938.28
2023-03-21T15:22:23.123Z,99946.16
2023-03-21T15:24:52.927Z,99933.09
2023-03-21T15:27:24.264Z,99935.63
2023-03-21T15:29:57.017Z,99923.44
2023-03-21T15:32:26.422Z,99931.25
2023-03-21T15:35:07.405Z,99924.34
2023-03-21T15:37:36.638Z,99921.75
2023-03-21T15:40:27.556Z,99934.75
2023-03-21T15:43:18.261Z,99934.72
2023-03-21T15:45:57.109Z,99925.09
2023-03-21T15:48:29.155Z,99923.31
2023-03-21T15:51:01.948Z,99926.03
2023-03-21T15:53:32.725Z,99934.81
2023-03-21T15:56:04.335Z,99927.09
2023-03-21T15:58:41.973Z,99925.44
2023-03-21T16:01:15.389Z,99927.25
2023-03-21T16:03:46.227Z,99922.13
2023-03-21T16:06:19.313Z,99926.50
2023-03-21T16:08:49.239Z,99920.50
2023-03-21T16:11:26.118Z,99923.16
2023-03-21T16:13:53.867Z,99918.88
2023-03-21T16:16:23.840Z,99922.34
2023-03-21T16:18:51.760Z,99912.84
2023-03-21T16:21:21.227Z,99917.22
2023-03-21T16:23:49.067Z,99917.22
2023-03-21T16:26:21.811Z,99922.44
2023-03-21T16:28:49.368Z,99920.72
2023-03-21T16:31:18.804Z,99921.56
2023-03-21T16:33:46.560Z,99922.44
2023-03-21T16:36:18.700Z,99928.47
2023-03-21T16:38:47.049Z,99920.69
2023-03-21T16:41:14.895Z,99928.47
2023-03-21T16:43:45.626Z,99935.44
2023-03-21T16:46:14.926Z,99933.69
2023-03-21T16:48:43.431Z,99944.94
2023-03-21T16:53:49.604Z,99942.41
2023-03-21T16:56:26.093Z,99946.78
2023-03-21T16:58:57.070Z,99938.13
2023-03-21T17:01:26.614Z,99944.19
2023-03-21T17:03:54.031Z,99941.59
2023-03-21T17:06:24.423Z,99942.44
2023-03-21T17:08:52.657Z,99941.59
2023-03-21T17:11:21.698Z,99937.28
2023-03-21T17:13:50.040Z,99937.31
2023-03-21T17:16:23.502Z,99947.69
2023-03-21T17:18:52.090Z,99949.41
2023-03-21T17:21:22.437Z,99953.72
2023-03-21T17:23:54.499Z,99950.25
2023-03-21T17:26:28.146Z,99945.06
2023-03-21T17:28:59.971Z,99950.31
2023-03-21T17:31:28.518Z,99943.41
2023-03-21T17:33:59.596Z,99946.94
2023-03-21T17:36:34.470Z,99939.19
2023-03-21T17:39:01.953Z,99955.59
2023-03-21T17:41:29.016Z,99955.56
2023-03-21T17:43:56.981Z,99953.84
2023-03-21T17:46:25.808Z,99942.63
2023-03-21T17:48:53.185Z,99941.72
2023-03-21T17:51:23.029Z,99948.59
2023-03-21T17:53:51.196Z,99956.28
2023-03-21T17:56:30.890Z,99946.84
2023-03-21T17:59:00.076Z,99948.59
2023-03-21T18:01:36.582Z,99948.63
2023-03-21T18:04:05.229Z,99946.06
2023-03-21T18:06:34.460Z,99947.78
2023-03-21T18:09:07.066Z,99951.22
2023-03-21T18:11:34.297Z,99948.66
2023-03-21T18:14:14.330Z,99944.34
2023-03-21T18:16:43.133Z,99945.22
2023-03-21T18:19:12.896Z,99941.75
2023-03-21T18:21:44.280Z,99945.19
2023-03-21T18:24:11.761Z,99946.94
2023-03-21T18:26:38.615Z,99938.28
2023-03-21T18:32:05.530Z,99932.25
2023-03-21T18:34:33.570Z,99923.59
2023-03-21T18:37:03.676Z,99921.88
2023-03-21T18:39:33.230Z,99924.47
2023-03-21T18:42:02.601Z,99914.06
2023-03-21T18:44:31.455Z,99920.97
2023-03-21T18:46:58.693Z,99919.25
2023-03-21T18:52:12.730Z,99917.53
2023-03-21T18:54:39.949Z,99918.38
2023-03-21T18:59:56.797Z,99908.00
2023-03-21T19:02:23.642Z,99907.13
2023-03-21T19:04:51.874Z,99911.44
2023-03-21T19:07:21.298Z,99909.69
2023-03-21T19:10:19.745Z,99908.84
2023-03-21T19:12:38.679Z,99911.44
2023-03-21T19:15:06.981Z,99912.31
2023-03-21T19:20:23.199Z,99910.56
2023-03-21T19:22:51.324Z,99914.03
2023-03-21T19:25:20.312Z,99915.75
2023-03-21T19:27:52.265Z,99912.31
2023-03-21T19:30:24.959Z,99911.44
2023-03-21T19:32:55.099Z,99901.06
2023-03-21T19:35:28.357Z,99895.88
2023-03-21T19:37:58.567Z,99897.59
2023-03-21T19:40:31.426Z,99908.81
2023-03-21T19:43:14.281Z,99901.06
2023-03-21T19:45:50.491Z,99904.50
2023-03-21T19:48:18.653Z,99909.69
2023-03-21T19:51:13.851Z,99908.81
2023-03-21T19:53:38.448Z,99905.38
2023-03-21T19:56:21.129Z,99905.38
2023-03-21T19:58:50.785Z,99896.72
2023-03-21T20:01:18.708Z,99899.31
2023-03-21T20:03:46.089Z,99896.75
2023-03-21T20:06:13.186Z,99895.03
2023-03-21T20:11:30.400Z,99881.22
2023-03-21T20:13:59.896Z,99884.66
2023-03-21T20:16:34.183Z,99880.31
2023-03-21T20:19:06.207Z,99877.72
2023-03-21T20:21:44.399Z,99875.97
2023-03-21T20:24:17.004Z,99885.50
2023-03-21T20:26:45.885Z,99876.88
2023-03-21T20:30:07.461Z,99880.31
2023-03-21T20:32:00.823Z,99873.41
2023-03-21T20:34:30.378Z,99877.72
2023-03-21T20:36:59.047Z,99875.97
2023-03-21T20:39:29.766Z,99869.94
2023-03-21T20:41:59.585Z,99872.53
2023-03-21T20:44:48.405Z,99865.63
2023-03-21T20:47:15.900Z,99873.41
2023-03-21T20:49:43.684Z,99873.41
2023-03-21T20:54:59.250Z,99869.13
2023-03-21T20:57:30.217Z,99867.38
2023-03-21T20:59:57.681Z,99866.50
2023-03-21T21:02:25.042Z,99861.34
2023-03-21T21:05:23.670Z,99865.66
2023-03-21T21:07:41.897Z,99862.19
2023-03-21T21:10:14.736Z,99857.88
2023-03-21T21:12:45.154Z,99856.16
2023-03-21T21:15:14.911Z,99850.13
2023-03-21T21:20:28.748Z,99851.84
2023-03-21T21:23:00.645Z,99847.53
2023-03-21T21:25:29.360Z,99843.22
2023-03-21T21:27:56.395Z,99836.31
2023-03-21T21:30:23.374Z,99834.59
2023-03-21T21:32:52.217Z,99838.94
2023-03-21T21:35:20.678Z,99833.72
2023-03-21T21:37:47.975Z,99827.69
2023-03-21T21:40:19.273Z,99825.97
2023-03-21T21:42:46.432Z,99825.97
2023-03-21T21:45:14.116Z,99817.34
2023-03-21T21:47:41.441Z,99827.72
2023-03-21T21:50:09.787Z,99819.09
2023-03-21T21:52:38.668Z,99819.09
2023-03-21T21:55:06.641Z,99815.63
2023-03-21T21:57:34.896Z,99820.81
2023-03-21T22:00:06.883Z,99809.59
2023-03-21T22:02:41.568Z,99804.41
2023-03-21T22:05:10.662Z,99796.63
2023-03-21T22:07:38.101Z,99795.78
2023-03-21T22:10:05.549Z,99794.91
2023-03-21T22:12:32.547Z,99788.88
2023-03-21T22:14:59.476Z,99783.69
2023-03-21T22:17:26.370Z,99784.53
2023-03-21T22:20:05.185Z,99782.81
2023-03-21T22:22:34.261Z,99781.09
2023-03-21T22:25:01.138Z,99775.03
2023-03-21T22:27:28.112Z,99775.91
2023-03-21T22:29:54.946Z,99774.19
2023-03-21T22:32:21.878Z,99774.19
2023-03-21T22:34:48.874Z,99780.25
2023-03-21T22:37:15.852Z,99762.97
2023-03-21T22:39:42.812Z,99762.09
2023-03-21T22:42:09.708Z,99763.84
2023-03-21T22:44:36.656Z,99764.72
2023-03-21T22:47:06.231Z,99771.59
2023-03-21T22:49:33.338Z,99772.47
2023-03-21T22:52:01.238Z,99769.00
2023-03-21T22:54:28.102Z,99763.81
2023-03-21T22:56:55.478Z,99768.16
2023-03-21T22:59:22.496Z,99762.13
2023-03-21T23:01:49.492Z,99761.22
2023-03-21T23:04:16.708Z,99761.22
2023-03-21T23:06:44.062Z,99756.91
2023-03-21T23:09:11.034Z,99755.19
2023-03-21T23:11:38.633Z,99756.03
2023-03-21T23:14:08.285Z,99751.72
2023-03-21T23:16:38.471Z,99750.00
2023-03-21T23:19:05.825Z,99743.06
2023-03-21T23:21:34.663Z,99740.47
2023-03-21T23:24:01.575Z,99732.66
2023-03-21T23:26:28.593Z,99737.84
2023-03-21T23:28:56.000Z,99730.94
2023-03-21T23:31:25.377Z,99730.09
2023-03-21T23:33:52.796Z,99724.00
2023-03-21T23:36:20.898Z,99727.44
2023-03-21T23:38:47.937Z,99727.47
2023-03-21T23:41:17.483Z,99723.13
2023-03-21T23:43:44.532Z,99728.28
2023-03-21T23:46:13.038Z,99722.25
2023-03-21T23:48:41.485Z,99721.34
2023-03-21T23:51:09.447Z,99704.94
2023-03-21T23:53:37.624Z,99701.47
2023-03-21T23:56:25.446Z,99705.78
2023-03-21T23:58:52.906Z,99706.63
